sensor_id;sensor_type;location;lat;lon;timestamp;temperature;humidity
23114;DHT22;11726;50.122;8.832;2023-09-18T00:00:31;20.20;99.90
23114;DHT22;11726;50.122;8.832;2023-09-18T00:02:59;20.30;99.90
23114;DHT22;11726;50.122;8.832;2023-09-18T00:05:29;20.20;99.90
23114;DHT22;11726;50.122;8.832;2023-09-18T00:07:56;20.30;99.90
23114;DHT22;11726;50.122;8.832;2023-09-18T00:10:23;20.30;99.90
23114;DHT22;11726;50.122;8.832;2023-09-18T00:12:49;20.20;99.90
23114;DHT22;11726;50.122;8.832;2023-09-18T00:15:16;20.10;99.90
23114;DHT22;11726;50.122;8.832;2023-09-18T00:17:43;20.00;99.90
23114;DHT22;11726;50.122;8.832;2023-09-18T00:20:10;19.90;99.90
23114;DHT22;11726;50.122;8.832;2023-09-18T00:22:37;19.90;99.90
23114;DHT22;11726;50.122;8.832;2023-09-18T00:25:05;19.90;99.90
23114;DHT22;11726;50.122;8.832;2023-09-18T00:27:31;19.90;99.90
23114;DHT22;11726;50.122;8.832;2023-09-18T00:29:59;19.90;99.90
23114;DHT22;11726;50.122;8.832;2023-09-18T00:32:25;20.00;99.90
23114;DHT22;11726;50.122;8.832;2023-09-18T00:34:54;20.00;99.90
23114;DHT22;11726;50.122;8.832;2023-09-18T00:37:20;20.10;99.90
23114;DHT22;11726;50.122;8.832;2023-09-18T00:39:47;20.10;99.90
23114;DHT22;11726;50.122;8.832;2023-09-18T00:42:15;20.20;99.90
23114;DHT22;11726;50.122;8.832;2023-09-18T00:44:45;20.20;99.90
23114;DHT22;11726;50.122;8.832;2023-09-18T00:47:12;20.30;99.90
23114;DHT22;11726;50.122;8.832;2023-09-18T00:49:43;20.20;99.90
23114;DHT22;11726;50.122;8.832;2023-09-18T00:52:11;20.20;99.90
23114;DHT22;11726;50.122;8.832;2023-09-18T00:54:39;20.20;99.90
23114;DHT22;11726;50.122;8.832;2023-09-18T00:57:08;20.10;99.90
23114;DHT22;11726;50.122;8.832;2023-09-18T00:59:36;20.10;99.90
23114;DHT22;11726;50.122;8.832;2023-09-18T01:02:03;20.00;99.90
23114;DHT22;11726;50.122;8.832;2023-09-18T01:04:30;20.00;99.90
23114;DHT22;11726;50.122;8.832;2023-09-18T01:06:59;20.10;99.90
23114;DHT22;11726;50.122;8.832;2023-09-18T01:09:34;20.10;99.90
23114;DHT22;11726;50.122;8.832;2023-09-18T01:15:11;20.20;99.90
23114;DHT22;11726;50.122;8.832;2023-09-18T01:17:39;20.20;99.90
23114;DHT22;11726;50.122;8.832;2023-09-18T01:20:11;20.20;99.90
23114;DHT22;11726;50.122;8.832;2023-09-18T01:22:38;20.20;99.90
23114;DHT22;11726;50.122;8.832;2023-09-18T01:25:06;20.30;99.90
23114;DHT22;11726;50.122;8.832;2023-09-18T01:27:33;20.20;99.90
23114;DHT22;11726;50.122;8.832;2023-09-18T01:30:00;20.10;99.90
23114;DHT22;11726;50.122;8.832;2023-09-18T01:32:30;20.20;99.90
23114;DHT22;11726;50.122;8.832;2023-09-18T01:35:00;20.30;99.90
23114;DHT22;11726;50.122;8.832;2023-09-18T01:37:30;20.30;99.90
23114;DHT22;11726;50.122;8.832;2023-09-18T01:39:58;20.30;99.90
23114;DHT22;11726;50.122;8.832;2023-09-18T01:42:27;20.20;99.90
23114;DHT22;11726;50.122;8.832;2023-09-18T01:44:54;20.30;99.90
23114;DHT22;11726;50.122;8.832;2023-09-18T01:47:22;20.30;99.90
23114;DHT22;11726;50.122;8.832;2023-09-18T01:49:53;20.40;99.90
23114;DHT22;11726;50.122;8.832;2023-09-18T01:52:20;20.40;99.90
23114;DHT22;11726;50.122;8.832;2023-09-18T01:54:47;20.40;99.90
23114;DHT22;11726;50.122;8.832;2023-09-18T01:57:14;20.40;99.90
23114;DHT22;11726;50.122;8.832;2023-09-18T01:59:41;20.30;99.90
23114;DHT22;11726;50.122;8.832;2023-09-18T02:02:08;20.30;99.90
23114;DHT22;11726;50.122;8.832;2023-09-18T02:04:37;20.40;99.90
23114;DHT22;11726;50.122;8.832;2023-09-18T02:07:24;20.40;99.90
23114;DHT22;11726;50.122;8.832;2023-09-18T02:09:51;20.40;99.90
23114;DHT22;11726;50.122;8.832;2023-09-18T02:12:18;20.40;99.90
23114;DHT22;11726;50.122;8.832;2023-09-18T02:14:45;20.50;99.90
23114;DHT22;11726;50.122;8.832;2023-09-18T02:17:12;20.50;99.90
23114;DHT22;11726;50.122;8.832;2023-09-18T02:19:39;20.50;99.90
23114;DHT22;11726;50.122;8.832;2023-09-18T02:22:05;20.40;99.90
23114;DHT22;11726;50.122;8.832;2023-09-18T02:24:33;20.40;99.90
23114;DHT22;11726;50.122;8.832;2023-09-18T02:27:03;20.30;99.90
23114;DHT22;11726;50.122;8.832;2023-09-18T02:29:30;20.20;99.90
23114;DHT22;11726;50.122;8.832;2023-09-18T02:31:57;20.10;99.90
23114;DHT22;11726;50.122;8.832;2023-09-18T02:34:24;20.20;99.90
23114;DHT22;11726;50.122;8.832;2023-09-18T02:36:51;20.20;99.90
23114;DHT22;11726;50.122;8.832;2023-09-18T02:39:17;20.10;99.90
23114;DHT22;11726;50.122;8.832;2023-09-18T02:41:44;20.00;99.90
23114;DHT22;11726;50.122;8.832;2023-09-18T02:44:11;20.00;99.90
23114;DHT22;11726;50.122;8.832;2023-09-18T02:46:37;20.00;99.90
23114;DHT22;11726;50.122;8.832;2023-09-18T02:49:05;19.90;99.90
23114;DHT22;11726;50.122;8.832;2023-09-18T02:51:31;19.80;99.90
23114;DHT22;11726;50.122;8.832;2023-09-18T02:53:58;19.90;99.90
23114;DHT22;11726;50.122;8.832;2023-09-18T02:56:25;19.90;99.90
23114;DHT22;11726;50.122;8.832;2023-09-18T02:58:51;19.90;99.90
23114;DHT22;11726;50.122;8.832;2023-09-18T03:01:19;19.90;99.90
23114;DHT22;11726;50.122;8.832;2023-09-18T03:03:46;19.90;99.90
23114;DHT22;11726;50.122;8.832;2023-09-18T03:06:12;19.80;99.90
23114;DHT22;11726;50.122;8.832;2023-09-18T03:08:39;20.00;99.90
23114;DHT22;11726;50.122;8.832;2023-09-18T03:11:12;19.90;99.90
23114;DHT22;11726;50.122;8.832;2023-09-18T03:13:43;19.90;99.90
23114;DHT22;11726;50.122;8.832;2023-09-18T03:16:11;19.90;99.90
23114;DHT22;11726;50.122;8.832;2023-09-18T03:18:38;19.90;99.90
23114;DHT22;11726;50.122;8.832;2023-09-18T03:21:05;19.90;99.90
23114;DHT22;11726;50.122;8.832;2023-09-18T03:23:32;19.70;99.90
23114;DHT22;11726;50.122;8.832;2023-09-18T03:25:59;19.80;99.90
23114;DHT22;11726;50.122;8.832;2023-09-18T03:28:26;19.70;99.90
23114;DHT22;11726;50.122;8.832;2023-09-18T03:30:53;19.70;99.90
23114;DHT22;11726;50.122;8.832;2023-09-18T03:33:19;19.50;99.90
23114;DHT22;11726;50.122;8.832;2023-09-18T03:38:14;19.40;99.90
23114;DHT22;11726;50.122;8.832;2023-09-18T03:40:41;19.40;99.90
23114;DHT22;11726;50.122;8.832;2023-09-18T03:43:10;19.30;99.90
23114;DHT22;11726;50.122;8.832;2023-09-18T03:45:36;19.40;99.90
23114;DHT22;11726;50.122;8.832;2023-09-18T03:48:03;19.40;99.90
23114;DHT22;11726;50.122;8.832;2023-09-18T03:50:30;19.40;99.90
23114;DHT22;11726;50.122;8.832;2023-09-18T03:52:58;19.40;99.90
23114;DHT22;11726;50.122;8.832;2023-09-18T03:55:24;19.50;99.90
23114;DHT22;11726;50.122;8.832;2023-09-18T03:57:52;19.50;99.90
23114;DHT22;11726;50.122;8.832;2023-09-18T04:00:21;19.40;99.90
23114;DHT22;11726;50.122;8.832;2023-09-18T04:02:49;19.50;99.90
23114;DHT22;11726;50.122;8.832;2023-09-18T04:05:16;19.50;99.90
23114;DHT22;11726;50.122;8.832;2023-09-18T04:07:43;19.40;99.90
23114;DHT22;11726;50.122;8.832;2023-09-18T04:10:13;19.40;99.90
23114;DHT22;11726;50.122;8.832;2023-09-18T04:12:45;19.40;99.90
23114;DHT22;11726;50.122;8.832;2023-09-18T04:15:16;19.20;99.90
23114;DHT22;11726;50.122;8.832;2023-09-18T04:17:44;19.20;99.90
23114;DHT22;11726;50.122;8.832;2023-09-18T04:20:11;19.30;99.90
23114;DHT22;11726;50.122;8.832;2023-09-18T04:22:46;19.40;99.90
23114;DHT22;11726;50.122;8.832;2023-09-18T04:25:17;19.40;99.90
23114;DHT22;11726;50.122;8.832;2023-09-18T04:27:46;19.40;99.90
23114;DHT22;11726;50.122;8.832;2023-09-18T04:30:13;19.30;99.90
23114;DHT22;11726;50.122;8.832;2023-09-18T04:32:40;19.30;99.90
23114;DHT22;11726;50.122;8.832;2023-09-18T04:35:08;19.20;99.90
23114;DHT22;11726;50.122;8.832;2023-09-18T04:37:37;19.20;99.90
23114;DHT22;11726;50.122;8.832;2023-09-18T04:40:05;19.20;99.90
23114;DHT22;11726;50.122;8.832;2023-09-18T04:42:38;19.30;99.90
23114;DHT22;11726;50.122;8.832;2023-09-18T04:45:05;19.10;99.90
23114;DHT22;11726;50.122;8.832;2023-09-18T04:47:32;19.20;99.90
23114;DHT22;11726;50.122;8.832;2023-09-18T04:49:59;19.30;99.90
23114;DHT22;11726;50.122;8.832;2023-09-18T04:52:26;19.40;99.90
23114;DHT22;11726;50.122;8.832;2023-09-18T04:54:53;19.40;99.90
23114;DHT22;11726;50.122;8.832;2023-09-18T04:57:20;19.40;99.90
23114;DHT22;11726;50.122;8.832;2023-09-18T04:59:48;19.20;99.90
23114;DHT22;11726;50.122;8.832;2023-09-18T05:02:35;19.20;99.90
23114;DHT22;11726;50.122;8.832;2023-09-18T05:05:03;19.20;99.90
23114;DHT22;11726;50.122;8.832;2023-09-18T05:07:30;19.10;99.90
23114;DHT22;11726;50.122;8.832;2023-09-18T05:09:59;19.20;99.90
23114;DHT22;11726;50.122;8.832;2023-09-18T05:12:25;19.20;99.90
23114;DHT22;11726;50.122;8.832;2023-09-18T05:14:52;19.20;99.90
23114;DHT22;11726;50.122;8.832;2023-09-18T05:17:19;19.20;99.90
23114;DHT22;11726;50.122;8.832;2023-09-18T05:19:45;19.20;99.90
23114;DHT22;11726;50.122;8.832;2023-09-18T05:22:12;19.20;99.90
23114;DHT22;11726;50.122;8.832;2023-09-18T05:24:39;19.30;99.90
23114;DHT22;11726;50.122;8.832;2023-09-18T05:27:06;19.30;99.90
23114;DHT22;11726;50.122;8.832;2023-09-18T05:29:34;19.40;99.90
23114;DHT22;11726;50.122;8.832;2023-09-18T05:32:04;19.30;99.90
23114;DHT22;11726;50.122;8.832;2023-09-18T05:34:31;19.20;99.90
23114;DHT22;11726;50.122;8.832;2023-09-18T05:36:58;19.20;99.90
23114;DHT22;11726;50.122;8.832;2023-09-18T05:39:25;19.30;99.90
23114;DHT22;11726;50.122;8.832;2023-09-18T05:41:52;19.30;99.90
23114;DHT22;11726;50.122;8.832;2023-09-18T05:44:19;19.40;99.90
23114;DHT22;11726;50.122;8.832;2023-09-18T05:46:45;19.40;99.90
23114;DHT22;11726;50.122;8.832;2023-09-18T05:49:12;19.40;99.90
23114;DHT22;11726;50.122;8.832;2023-09-18T05:51:39;19.40;99.90
23114;DHT22;11726;50.122;8.832;2023-09-18T05:54:06;19.40;99.90
23114;DHT22;11726;50.122;8.832;2023-09-18T05:56:33;19.40;99.90
23114;DHT22;11726;50.122;8.832;2023-09-18T05:59:00;19.50;99.90
23114;DHT22;11726;50.122;8.832;2023-09-18T06:01:27;19.50;99.90
23114;DHT22;11726;50.122;8.832;2023-09-18T06:03:54;19.50;99.90
23114;DHT22;11726;50.122;8.832;2023-09-18T06:06:21;19.50;99.90
23114;DHT22;11726;50.122;8.832;2023-09-18T06:08:47;19.50;99.90
23114;DHT22;11726;50.122;8.832;2023-09-18T06:11:14;19.60;99.90
23114;DHT22;11726;50.122;8.832;2023-09-18T06:13:41;19.60;99.90
23114;DHT22;11726;50.122;8.832;2023-09-18T06:16:08;19.60;99.90
23114;DHT22;11726;50.122;8.832;2023-09-18T06:18:35;19.60;99.90
23114;DHT22;11726;50.122;8.832;2023-09-18T06:21:05;19.60;99.90
23114;DHT22;11726;50.122;8.832;2023-09-18T06:23:32;19.60;99.90
23114;DHT22;11726;50.122;8.832;2023-09-18T06:25:59;19.60;99.90
23114;DHT22;11726;50.122;8.832;2023-09-18T06:28:26;19.70;99.90
23114;DHT22;11726;50.122;8.832;2023-09-18T06:30:53;19.70;99.90
23114;DHT22;11726;50.122;8.832;2023-09-18T06:33:21;19.70;99.90
23114;DHT22;11726;50.122;8.832;2023-09-18T06:35:48;19.70;99.90
23114;DHT22;11726;50.122;8.832;2023-09-18T06:38:15;19.70;99.90
23114;DHT22;11726;50.122;8.832;2023-09-18T06:40:42;19.70;99.90
23114;DHT22;11726;50.122;8.832;2023-09-18T06:43:08;19.80;99.90
23114;DHT22;11726;50.122;8.832;2023-09-18T06:45:35;19.70;99.90
23114;DHT22;11726;50.122;8.832;2023-09-18T06:48:04;19.80;99.90
23114;DHT22;11726;50.122;8.832;2023-09-18T06:50:31;19.80;99.90
23114;DHT22;11726;50.122;8.832;2023-09-18T06:52:58;19.80;99.90
23114;DHT22;11726;50.122;8.832;2023-09-18T06:55:25;19.80;99.90
23114;DHT22;11726;50.122;8.832;2023-09-18T06:57:52;19.90;99.90
23114;DHT22;11726;50.122;8.832;2023-09-18T07:00:19;19.90;99.90
23114;DHT22;11726;50.122;8.832;2023-09-18T07:02:47;20.00;99.90
23114;DHT22;11726;50.122;8.832;2023-09-18T07:05:14;19.90;99.90
23114;DHT22;11726;50.122;8.832;2023-09-18T07:07:41;20.00;99.90
23114;DHT22;11726;50.122;8.832;2023-09-18T07:10:08;20.10;99.90
23114;DHT22;11726;50.122;8.832;2023-09-18T07:12:35;20.10;99.90
23114;DHT22;11726;50.122;8.832;2023-09-18T07:15:03;20.20;99.90
23114;DHT22;11726;50.122;8.832;2023-09-18T07:17:30;20.20;99.90
23114;DHT22;11726;50.122;8.832;2023-09-18T07:19:58;20.30;99.90
23114;DHT22;11726;50.122;8.832;2023-09-18T07:22:25;20.30;99.90
23114;DHT22;11726;50.122;8.832;2023-09-18T07:24:55;20.30;99.90
23114;DHT22;11726;50.122;8.832;2023-09-18T07:27:21;20.30;99.90
23114;DHT22;11726;50.122;8.832;2023-09-18T07:29:48;20.30;99.90
23114;DHT22;11726;50.122;8.832;2023-09-18T07:32:15;20.30;99.90
23114;DHT22;11726;50.122;8.832;2023-09-18T07:35:02;20.30;99.90
23114;DHT22;11726;50.122;8.832;2023-09-18T07:37:31;20.30;99.90
23114;DHT22;11726;50.122;8.832;2023-09-18T07:39:58;20.30;99.90
23114;DHT22;11726;50.122;8.832;2023-09-18T07:42:25;20.30;99.90
23114;DHT22;11726;50.122;8.832;2023-09-18T07:44:53;20.30;99.90
23114;DHT22;11726;50.122;8.832;2023-09-18T07:47:22;20.40;99.90
23114;DHT22;11726;50.122;8.832;2023-09-18T07:49:49;20.40;99.90
23114;DHT22;11726;50.122;8.832;2023-09-18T07:52:19;20.40;99.90
23114;DHT22;11726;50.122;8.832;2023-09-18T07:54:46;20.50;99.90
23114;DHT22;11726;50.122;8.832;2023-09-18T07:57:13;20.50;99.90
23114;DHT22;11726;50.122;8.832;2023-09-18T07:59:40;20.60;99.90
23114;DHT22;11726;50.122;8.832;2023-09-18T08:02:08;20.70;99.90
23114;DHT22;11726;50.122;8.832;2023-09-18T08:04:38;20.70;99.90
23114;DHT22;11726;50.122;8.832;2023-09-18T08:07:05;20.80;99.90
23114;DHT22;11726;50.122;8.832;2023-09-18T08:09:33;20.80;99.90
23114;DHT22;11726;50.122;8.832;2023-09-18T08:12:03;20.90;99.90
23114;DHT22;11726;50.122;8.832;2023-09-18T08:14:30;21.00;99.90
23114;DHT22;11726;50.122;8.832;2023-09-18T08:16:58;21.00;99.90
23114;DHT22;11726;50.122;8.832;2023-09-18T08:19:26;21.10;99.90
23114;DHT22;11726;50.122;8.832;2023-09-18T08:21:54;21.20;99.90
23114;DHT22;11726;50.122;8.832;2023-09-18T08:24:22;21.20;99.90
23114;DHT22;11726;50.122;8.832;2023-09-18T08:26:49;21.30;99.90
23114;DHT22;11726;50.122;8.832;2023-09-18T08:29:16;21.30;99.90
23114;DHT22;11726;50.122;8.832;2023-09-18T08:31:44;21.50;99.90
23114;DHT22;11726;50.122;8.832;2023-09-18T08:34:11;21.50;99.90
23114;DHT22;11726;50.122;8.832;2023-09-18T08:36:38;21.60;99.90
23114;DHT22;11726;50.122;8.832;2023-09-18T08:39:04;21.60;99.90
23114;DHT22;11726;50.122;8.832;2023-09-18T08:41:33;21.60;99.90
23114;DHT22;11726;50.122;8.832;2023-09-18T08:44:03;21.70;99.90
23114;DHT22;11726;50.122;8.832;2023-09-18T08:46:30;21.70;99.90
23114;DHT22;11726;50.122;8.832;2023-09-18T08:49:00;21.80;99.90
23114;DHT22;11726;50.122;8.832;2023-09-18T08:51:27;21.80;99.90
23114;DHT22;11726;50.122;8.832;2023-09-18T08:53:55;21.90;99.90
23114;DHT22;11726;50.122;8.832;2023-09-18T08:56:22;21.90;99.90
23114;DHT22;11726;50.122;8.832;2023-09-18T08:58:50;22.00;99.90
23114;DHT22;11726;50.122;8.832;2023-09-18T09:01:17;22.00;99.90
23114;DHT22;11726;50.122;8.832;2023-09-18T09:03:44;22.00;99.90
23114;DHT22;11726;50.122;8.832;2023-09-18T09:06:14;22.10;99.90
23114;DHT22;11726;50.122;8.832;2023-09-18T09:08:41;22.10;99.90
23114;DHT22;11726;50.122;8.832;2023-09-18T09:11:08;22.10;99.90
23114;DHT22;11726;50.122;8.832;2023-09-18T09:13:35;22.10;99.90
23114;DHT22;11726;50.122;8.832;2023-09-18T09:16:12;22.10;99.90
23114;DHT22;11726;50.122;8.832;2023-09-18T09:18:50;22.10;99.90
23114;DHT22;11726;50.122;8.832;2023-09-18T09:21:18;22.10;99.90
23114;DHT22;11726;50.122;8.832;2023-09-18T09:23:50;22.10;99.90
23114;DHT22;11726;50.122;8.832;2023-09-18T09:26:22;22.10;99.90
23114;DHT22;11726;50.122;8.832;2023-09-18T09:28:50;22.10;99.90
23114;DHT22;11726;50.122;8.832;2023-09-18T09:31:29;22.10;99.90
23114;DHT22;11726;50.122;8.832;2023-09-18T09:33:57;22.10;99.90
23114;DHT22;11726;50.122;8.832;2023-09-18T09:36:24;22.10;99.90
23114;DHT22;11726;50.122;8.832;2023-09-18T09:38:55;22.00;99.90
23114;DHT22;11726;50.122;8.832;2023-09-18T09:41:26;22.10;99.90
23114;DHT22;11726;50.122;8.832;2023-09-18T09:43:57;22.00;99.90
23114;DHT22;11726;50.122;8.832;2023-09-18T09:46:24;22.00;99.90
23114;DHT22;11726;50.122;8.832;2023-09-18T09:48:59;22.10;99.90
23114;DHT22;11726;50.122;8.832;2023-09-18T09:51:26;22.10;99.90
23114;DHT22;11726;50.122;8.832;2023-09-18T09:53:52;22.00;99.90
23114;DHT22;11726;50.122;8.832;2023-09-18T09:56:19;22.00;99.90
23114;DHT22;11726;50.122;8.832;2023-09-18T09:59:05;22.00;99.90
23114;DHT22;11726;50.122;8.832;2023-09-18T10:01:35;21.90;99.90
23114;DHT22;11726;50.122;8.832;2023-09-18T10:04:10;21.90;99.90
23114;DHT22;11726;50.122;8.832;2023-09-18T10:06:41;21.90;99.90
23114;DHT22;11726;50.122;8.832;2023-09-18T10:09:10;21.80;99.90
23114;DHT22;11726;50.122;8.832;2023-09-18T10:11:41;21.90;99.90
23114;DHT22;11726;50.122;8.832;2023-09-18T10:14:12;21.90;99.90
23114;DHT22;11726;50.122;8.832;2023-09-18T10:16:50;21.90;99.90
23114;DHT22;11726;50.122;8.832;2023-09-18T10:19:40;21.90;99.90
23114;DHT22;11726;50.122;8.832;2023-09-18T10:22:30;21.80;99.90
23114;DHT22;11726;50.122;8.832;2023-09-18T10:25:17;21.80;99.90
23114;DHT22;11726;50.122;8.832;2023-09-18T10:27:47;21.90;99.90
23114;DHT22;11726;50.122;8.832;2023-09-18T10:30:16;21.90;99.90
23114;DHT22;11726;50.122;8.832;2023-09-18T10:32:45;21.90;99.90
23114;DHT22;11726;50.122;8.832;2023-09-18T10:35:12;21.90;99.90
23114;DHT22;11726;50.122;8.832;2023-09-18T10:37:41;21.80;99.90
23114;DHT22;11726;50.122;8.832;2023-09-18T10:40:10;21.80;99.90
23114;DHT22;11726;50.122;8.832;2023-09-18T10:42:41;21.90;99.90
23114;DHT22;11726;50.122;8.832;2023-09-18T10:45:12;21.90;99.90
23114;DHT22;11726;50.122;8.832;2023-09-18T10:47:41;22.00;99.90
23114;DHT22;11726;50.122;8.832;2023-09-18T10:50:09;22.10;99.90
23114;DHT22;11726;50.122;8.832;2023-09-18T10:52:43;22.30;99.90
23114;DHT22;11726;50.122;8.832;2023-09-18T10:55:14;22.30;99.90
23114;DHT22;11726;50.122;8.832;2023-09-18T10:57:54;22.40;99.90
23114;DHT22;11726;50.122;8.832;2023-09-18T11:00:24;22.40;99.90
23114;DHT22;11726;50.122;8.832;2023-09-18T11:02:52;22.40;99.90
23114;DHT22;11726;50.122;8.832;2023-09-18T11:05:35;22.40;99.90
23114;DHT22;11726;50.122;8.832;2023-09-18T11:08:27;22.60;99.90
23114;DHT22;11726;50.122;8.832;2023-09-18T11:10:58;22.60;99.90
23114;DHT22;11726;50.122;8.832;2023-09-18T11:13:34;22.60;99.90
23114;DHT22;11726;50.122;8.832;2023-09-18T11:16:14;22.60;99.90
23114;DHT22;11726;50.122;8.832;2023-09-18T11:18:41;22.50;99.90
23114;DHT22;11726;50.122;8.832;2023-09-18T11:21:09;22.40;99.90
23114;DHT22;11726;50.122;8.832;2023-09-18T11:23:38;22.40;99.90
23114;DHT22;11726;50.122;8.832;2023-09-18T11:26:10;22.50;99.90
23114;DHT22;11726;50.122;8.832;2023-09-18T11:28:38;22.50;99.90
23114;DHT22;11726;50.122;8.832;2023-09-18T11:31:05;22.50;99.90
23114;DHT22;11726;50.122;8.832;2023-09-18T11:33:39;22.50;99.90
23114;DHT22;11726;50.122;8.832;2023-09-18T11:36:11;22.60;99.90
23114;DHT22;11726;50.122;8.832;2023-09-18T11:38:58;22.60;99.90
23114;DHT22;11726;50.122;8.832;2023-09-18T11:41:31;22.80;99.90
23114;DHT22;11726;50.122;8.832;2023-09-18T11:46:38;22.80;99.90
23114;DHT22;11726;50.122;8.832;2023-09-18T11:49:08;22.70;99.90
23114;DHT22;11726;50.122;8.832;2023-09-18T11:51:39;22.70;99.90
23114;DHT22;11726;50.122;8.832;2023-09-18T11:54:07;22.60;99.90
23114;DHT22;11726;50.122;8.832;2023-09-18T11:56:34;22.70;99.90
23114;DHT22;11726;50.122;8.832;2023-09-18T11:59:00;22.70;99.90
23114;DHT22;11726;50.122;8.832;2023-09-18T12:01:31;22.80;99.90
23114;DHT22;11726;50.122;8.832;2023-09-18T12:04:03;22.90;99.90
23114;DHT22;11726;50.122;8.832;2023-09-18T12:06:41;23.10;99.90
23114;DHT22;11726;50.122;8.832;2023-09-18T12:09:09;23.10;99.90
23114;DHT22;11726;50.122;8.832;2023-09-18T12:11:36;23.10;99.90
23114;DHT22;11726;50.122;8.832;2023-09-18T12:14:08;23.00;99.90
23114;DHT22;11726;50.122;8.832;2023-09-18T12:16:38;23.10;99.90
23114;DHT22;11726;50.122;8.832;2023-09-18T12:19:08;23.10;99.90
23114;DHT22;11726;50.122;8.832;2023-09-18T12:21:42;23.00;99.90
23114;DHT22;11726;50.122;8.832;2023-09-18T12:24:22;23.10;99.90
23114;DHT22;11726;50.122;8.832;2023-09-18T12:26:50;23.20;99.90
23114;DHT22;11726;50.122;8.832;2023-09-18T12:29:17;23.20;99.90
23114;DHT22;11726;50.122;8.832;2023-09-18T12:31:44;23.20;99.90
23114;DHT22;11726;50.122;8.832;2023-09-18T12:34:18;23.20;99.90
23114;DHT22;11726;50.122;8.832;2023-09-18T12:36:46;23.20;99.90
23114;DHT22;11726;50.122;8.832;2023-09-18T12:39:14;23.30;99.90
23114;DHT22;11726;50.122;8.832;2023-09-18T12:41:44;23.40;99.90
23114;DHT22;11726;50.122;8.832;2023-09-18T12:44:11;23.30;99.90
23114;DHT22;11726;50.122;8.832;2023-09-18T12:46:39;23.60;99.90
23114;DHT22;11726;50.122;8.832;2023-09-18T12:49:21;23.60;99.90
23114;DHT22;11726;50.122;8.832;2023-09-18T12:51:58;23.70;99.90
23114;DHT22;11726;50.122;8.832;2023-09-18T12:57:09;23.80;99.90
23114;DHT22;11726;50.122;8.832;2023-09-18T12:59:36;23.80;99.90
23114;DHT22;11726;50.122;8.832;2023-09-18T13:02:05;23.70;99.90
23114;DHT22;11726;50.122;8.832;2023-09-18T13:04:36;23.80;99.90
23114;DHT22;11726;50.122;8.832;2023-09-18T13:07:10;23.80;99.90
23114;DHT22;11726;50.122;8.832;2023-09-18T13:09:39;23.80;99.90
23114;DHT22;11726;50.122;8.832;2023-09-18T13:12:06;23.90;99.90
23114;DHT22;11726;50.122;8.832;2023-09-18T13:15:02;24.60;99.90
23114;DHT22;11726;50.122;8.832;2023-09-18T13:17:46;25.20;99.90
23114;DHT22;11726;50.122;8.832;2023-09-18T13:20:16;25.00;99.90
23114;DHT22;11726;50.122;8.832;2023-09-18T13:22:48;24.90;99.90
23114;DHT22;11726;50.122;8.832;2023-09-18T13:25:22;24.70;99.90
23114;DHT22;11726;50.122;8.832;2023-09-18T13:27:53;24.50;99.90
23114;DHT22;11726;50.122;8.832;2023-09-18T13:30:21;24.30;99.90
23114;DHT22;11726;50.122;8.832;2023-09-18T13:32:51;24.20;99.90
23114;DHT22;11726;50.122;8.832;2023-09-18T13:35:18;24.20;99.90
23114;DHT22;11726;50.122;8.832;2023-09-18T13:37:46;24.20;99.90
23114;DHT22;11726;50.122;8.832;2023-09-18T13:40:12;24.60;99.90
23114;DHT22;11726;50.122;8.832;2023-09-18T13:42:39;25.40;99.90
23114;DHT22;11726;50.122;8.832;2023-09-18T13:45:06;25.70;99.90
23114;DHT22;11726;50.122;8.832;2023-09-18T13:47:34;25.60;99.90
23114;DHT22;11726;50.122;8.832;2023-09-18T13:50:03;25.20;99.90
23114;DHT22;11726;50.122;8.832;2023-09-18T13:52:32;24.90;99.90
23114;DHT22;11726;50.122;8.832;2023-09-18T13:55:01;24.70;99.90
23114;DHT22;11726;50.122;8.832;2023-09-18T13:57:28;24.50;99.90
23114;DHT22;11726;50.122;8.832;2023-09-18T13:59:55;24.30;99.90
23114;DHT22;11726;50.122;8.832;2023-09-18T14:02:22;24.30;99.90
23114;DHT22;11726;50.122;8.832;2023-09-18T14:04:54;24.30;99.90
23114;DHT22;11726;50.122;8.832;2023-09-18T14:07:21;24.30;99.90
23114;DHT22;11726;50.122;8.832;2023-09-18T14:09:48;24.20;99.90
23114;DHT22;11726;50.122;8.832;2023-09-18T14:12:15;24.20;99.90
23114;DHT22;11726;50.122;8.832;2023-09-18T14:14:42;24.40;99.90
23114;DHT22;11726;50.122;8.832;2023-09-18T14:17:12;24.40;99.90
23114;DHT22;11726;50.122;8.832;2023-09-18T14:19:39;24.30;99.90
23114;DHT22;11726;50.122;8.832;2023-09-18T14:22:06;24.30;99.90
23114;DHT22;11726;50.122;8.832;2023-09-18T14:24:33;24.30;99.90
23114;DHT22;11726;50.122;8.832;2023-09-18T14:27:01;24.50;99.90
23114;DHT22;11726;50.122;8.832;2023-09-18T14:29:29;24.70;99.90
23114;DHT22;11726;50.122;8.832;2023-09-18T14:32:02;25.00;99.90
23114;DHT22;11726;50.122;8.832;2023-09-18T14:34:30;25.40;99.90
23114;DHT22;11726;50.122;8.832;2023-09-18T14:36:57;25.60;99.90
23114;DHT22;11726;50.122;8.832;2023-09-18T14:39:24;25.90;99.90
23114;DHT22;11726;50.122;8.832;2023-09-18T14:41:50;25.70;99.90
23114;DHT22;11726;50.122;8.832;2023-09-18T14:44:17;25.30;99.90
23114;DHT22;11726;50.122;8.832;2023-09-18T14:46:44;25.10;99.90
23114;DHT22;11726;50.122;8.832;2023-09-18T14:49:11;25.00;99.90
23114;DHT22;11726;50.122;8.832;2023-09-18T14:51:37;25.10;99.90
23114;DHT22;11726;50.122;8.832;2023-09-18T14:54:04;25.40;99.90
23114;DHT22;11726;50.122;8.832;2023-09-18T14:56:31;25.20;99.90
23114;DHT22;11726;50.122;8.832;2023-09-18T14:58:58;25.00;99.90
23114;DHT22;11726;50.122;8.832;2023-09-18T15:01:24;24.80;99.90
23114;DHT22;11726;50.122;8.832;2023-09-18T15:03:51;25.20;99.90
23114;DHT22;11726;50.122;8.832;2023-09-18T15:06:18;26.00;99.90
23114;DHT22;11726;50.122;8.832;2023-09-18T15:08:45;26.60;99.90
23114;DHT22;11726;50.122;8.832;2023-09-18T15:11:12;26.50;99.90
23114;DHT22;11726;50.122;8.832;2023-09-18T15:13:39;26.50;99.90
23114;DHT22;11726;50.122;8.832;2023-09-18T15:16:06;26.60;99.90
23114;DHT22;11726;50.122;8.832;2023-09-18T15:18:33;26.40;99.90
23114;DHT22;11726;50.122;8.832;2023-09-18T15:21:00;26.10;99.90
23114;DHT22;11726;50.122;8.832;2023-09-18T15:23:27;26.10;99.90
23114;DHT22;11726;50.122;8.832;2023-09-18T15:25:54;26.20;99.90
23114;DHT22;11726;50.122;8.832;2023-09-18T15:28:22;26.20;99.90
23114;DHT22;11726;50.122;8.832;2023-09-18T15:30:53;25.90;99.90
23114;DHT22;11726;50.122;8.832;2023-09-18T15:33:20;25.70;99.90
23114;DHT22;11726;50.122;8.832;2023-09-18T15:35:49;25.90;99.90
23114;DHT22;11726;50.122;8.832;2023-09-18T15:38:16;26.20;99.90
23114;DHT22;11726;50.122;8.832;2023-09-18T15:40:42;26.00;99.90
23114;DHT22;11726;50.122;8.832;2023-09-18T15:43:09;25.50;99.90
23114;DHT22;11726;50.122;8.832;2023-09-18T15:45:36;25.10;99.90
23114;DHT22;11726;50.122;8.832;2023-09-18T15:48:04;24.90;99.90
23114;DHT22;11726;50.122;8.832;2023-09-18T15:50:31;24.90;99.90